Flight Track Log - Related Links

Times and Time Zones

All times are in EDT time to prevent confusion due to time zone crossing. See the UAL3773 flight status page for this flight to view local times or setup timezone preferences in your user account.

Time Position Orientation Groundspeed Altitude Reporting Facility
EDT Latitude Longitude Course Direction KTS MPH feet Rate Location/Type
Tue 03:46:10 PM 38.9333 -77.5500 252° West 197 227 2,400  Level Potomac TRACON
Tue 03:47:10 PM 38.9167 -77.6167 252° West 244 281 4,600 1,600 Climbing Potomac TRACON
Tue 03:48:10 PM 38.9000 -77.7167 258° West 264 304 5,600 2,103 Climbing Potomac TRACON
Tue 03:49:07 PM 38.8558 -77.7828 229° Southwest 270 311 8,700 2,513 Climbing Washington Center
Tue 03:50:07 PM 38.8439 -77.8758 261° West 265 305 10,500 1,800 Climbing Washington Center
Tue 03:51:07 PM 38.8481 -77.9747 273° West 290 334 12,300 2,000 Climbing Washington Center
Tue 03:52:07 PM 38.8517 -78.1081 272° West 327 376 14,500 1,900 Climbing Washington Center
Tue 03:53:07 PM 38.8556 -78.2175 273° West 349 402 16,100 1,750 Climbing Washington Center
Tue 03:54:07 PM 38.8544 -78.3586 269° West 359 413 18,000 1,700 Climbing Washington Center
Tue 03:55:07 PM 38.8517 -78.4786 268° West 369 425 19,500 1,450 Climbing Washington Center
Tue 03:56:07 PM 38.8544 -78.6200 271° West 387 445 20,900 1,450 Climbing Washington Center
Tue 03:57:07 PM 38.8531 -78.7586 269° West 387 445 22,400 1,400 Climbing Washington Center
Tue 03:58:07 PM 38.8447 -78.9100 266° West 392 451 23,700 1,400 Climbing Washington Center
Tue 03:59:07 PM 38.8453 -79.0353 270° West 386 444 25,200 1,300 Climbing Washington Center
Tue 04:00:07 PM 38.8447 -79.2006 270° West 394 453 26,300 900 Climbing Washington Center
Tue 04:01:07 PM 38.8422 -79.3497 269° West 414 476 27,000 750 Climbing Washington Center
Tue 04:02:07 PM 38.8375 -79.4989 268° West 419 482 27,800 850 Climbing Washington Center
Tue 04:03:07 PM 38.8369 -79.6372 270° West 419 482 28,700 1,050 Climbing Washington Center
Tue 04:04:07 PM 38.8319 -79.7864 268° West 419 482 29,900 1,100 Climbing Washington Center
Tue 04:05:07 PM 38.8267 -79.9325 267° West 419 482 30,900 1,050 Climbing Washington Center
Tue 04:06:07 PM 38.8250 -80.0925 269° West 419 482 32,000 1,037 Climbing Washington Center
Tue 04:06:28 PM 38.8203 -80.1303 261° West 410 472 32,300 940 Climbing Indianapolis Center
Tue 04:07:30 PM 38.8169 -80.2753 268° West 407 468 33,300 823 Climbing Indianapolis Center
Tue 04:08:32 PM 38.8119 -80.4181 267° West 404 465 34,000 581 Climbing Indianapolis Center
Tue 04:09:34 PM 38.8083 -80.5656 268° West 413 475 34,500 726 Climbing Indianapolis Center
Tue 04:10:36 PM 38.8042 -80.7114 268° West 411 473 35,500 1,065 Climbing Indianapolis Center
Tue 04:11:38 PM 38.7986 -80.8822 268° West 401 461 36,700 1,016 Climbing Indianapolis Center
Tue 04:12:40 PM 38.7933 -81.0225 267° West 395 455 37,600 634 Climbing Indianapolis Center
Tue 04:13:41 PM 38.7889 -81.1622 268° West 394 453 38,000 195 Climbing Indianapolis Center
Tue 04:14:43 PM 38.7839 -81.3044 267° West 400 460 38,000  Level Indianapolis Center
Tue 04:15:45 PM 38.7772 -81.4597 267° West 410 472 38,000  Level Indianapolis Center
Tue 04:16:47 PM 38.7733 -81.6106 268° West 420 483 38,000  Level Indianapolis Center
Tue 04:17:49 PM 38.7664 -81.7708 267° West 422 486 38,000  Level Indianapolis Center
Tue 04:18:51 PM 38.7603 -81.9144 267° West 409 471 38,000  Level Indianapolis Center
Tue 04:19:53 PM 38.7542 -82.0586 267° West 407 468 38,000  Level Indianapolis Center
Tue 04:20:55 PM 38.7483 -82.2019 267° West 404 465 38,000  Level Indianapolis Center
Tue 04:21:57 PM 38.7419 -82.3756 267° West 406 467 38,000  Level Indianapolis Center
Tue 04:22:59 PM 38.7372 -82.5189 268° West 406 467 38,000  Level Indianapolis Center
Tue 04:24:00 PM 38.7297 -82.6644 266° West 409 471 38,000  Level Indianapolis Center
Tue 04:25:02 PM 38.7236 -82.8106 267° West 411 473 38,000  Level Indianapolis Center
Tue 04:26:04 PM 38.7183 -82.9553 267° West 408 470 38,000  Level Indianapolis Center
Tue 04:27:06 PM 38.7106 -83.1019 266° West 410 472 38,000  Level Indianapolis Center
Tue 04:28:08 PM 38.7036 -83.2578 267° West 407 468 38,000  Level Indianapolis Center
Tue 04:29:10 PM 38.6975 -83.4056 267° West 410 472 38,000  Level Indianapolis Center
Tue 04:30:12 PM 38.6897 -83.5542 266° West 412 474 38,000  Level Indianapolis Center
Tue 04:31:14 PM 38.6817 -83.6992 266° West 407 468 38,000  Level Indianapolis Center
Tue 04:32:16 PM 38.6739 -83.8469 266° West 410 472 38,000  Level Indianapolis Center
Tue 04:33:18 PM 38.6653 -84.0211 266° West 416 479 38,000  Level Indianapolis Center
Tue 04:34:20 PM 38.6575 -84.1689 266° West 413 475 38,000  Level Indianapolis Center
Tue 04:35:21 PM 38.6506 -84.3194 267° West 417 480 38,000  Level Indianapolis Center
Tue 04:36:23 PM 38.6589 -84.4667 274° West 411 473 38,000  Level Indianapolis Center
Tue 04:37:25 PM 38.6683 -84.6239 274° West 414 476 38,000  Level Indianapolis Center
Tue 04:38:27 PM 38.6764 -84.7731 274° West 419 482 38,000  Level Indianapolis Center
Tue 04:39:29 PM 38.6844 -84.9194 274° West 415 478 38,000  Level Indianapolis Center
Tue 04:40:32 PM 38.6925 -85.0678 274° West 417 480 38,000  Level Indianapolis Center
Tue 04:41:34 PM 38.7000 -85.2161 274° West 417 480 38,000  Level Indianapolis Center
Tue 04:42:36 PM 38.7086 -85.3647 274° West 418 481 38,000  Level Indianapolis Center
Tue 04:43:38 PM 38.7169 -85.5433 273° West 419 482 38,000  Level Indianapolis Center
Tue 04:44:40 PM 38.7250 -85.6922 274° West 418 481 38,000  Level Indianapolis Center
Tue 04:45:42 PM 38.7317 -85.8403 273° West 417 480 38,000  Level Indianapolis Center
Tue 04:46:44 PM 38.7397 -85.9892 274° West 419 482 38,000  Level Indianapolis Center
Tue 04:47:46 PM 38.7472 -86.1361 274° West 414 476 38,000  Level Indianapolis Center
Tue 04:48:48 PM 38.7533 -86.2822 273° West 412 474 38,000  Level Indianapolis Center
Tue 04:49:50 PM 38.7611 -86.4586 273° West 412 474 38,000  Level Indianapolis Center
Tue 04:50:52 PM 38.7675 -86.6061 273° West 414 476 38,000  Level Indianapolis Center
Tue 04:51:54 PM 38.7728 -86.7528 273° West 412 474 38,000  Level Indianapolis Center
Tue 04:52:56 PM 38.7786 -86.8997 273° West 414 476 38,000  Level Indianapolis Center
Tue 04:53:58 PM 38.7847 -87.0464 273° West 414 476 38,000  Level Indianapolis Center
Tue 04:55:00 PM 38.7892 -87.1931 272° West 414 476 38,000  Level Indianapolis Center
Tue 04:56:02 PM 38.7950 -87.3694 272° West 415 478 38,000  Level Indianapolis Center
Tue 04:57:04 PM 38.8008 -87.5164 273° West 416 479 38,000  Level Indianapolis Center
Tue 04:58:06 PM 38.8058 -87.6633 273° West 414 476 38,000  Level Indianapolis Center
Tue 04:59:08 PM 38.8106 -87.8119 272° West 416 479 38,000  Level Indianapolis Center
Tue 05:00:10 PM 38.8144 -87.9600 272° West 415 478 38,000  Level Indianapolis Center
Tue 05:00:35 PM 38.8156 -88.0211 271° West 415 478 38,000  Level Kansas City Center
Tue 05:01:39 PM 38.8197 -88.1714 272° West 419 482 38,000  Level Kansas City Center
Tue 05:02:39 PM 38.8239 -88.3514 272° West 420 483 38,000 197 Level Kansas City Center
Tue 05:03:41 PM 38.8483 -88.4989 282° West 423 487 38,400 624 Climbing Kansas City Center
Tue 05:04:44 PM 38.8814 -88.6453 286° West 417 480 39,300 774 Climbing Kansas City Center
Tue 05:05:45 PM 38.9122 -88.7836 286° West 407 468 40,000 336 Climbing Kansas City Center
Tue 05:06:49 PM 38.9417 -88.9231 285° West 406 467 40,000  Level Kansas City Center
Tue 05:07:50 PM 38.9775 -89.0839 286° West 420 483 40,000  Level Kansas City Center
Tue 05:08:50 PM 39.0094 -89.2297 286° West 426 490 40,000  Level Kansas City Center
Tue 05:09:55 PM 39.0428 -89.3881 285° West 428 493 40,000  Level Kansas City Center
Tue 05:10:56 PM 39.0750 -89.5344 286° West 428 493 40,000  Level Kansas City Center
Tue 05:11:57 PM 39.1089 -89.6931 285° West 428 493 40,000  Level Kansas City Center
Tue 05:13:00 PM 39.1389 -89.8403 285° West 427 491 40,000  Level Kansas City Center
Tue 05:14:01 PM 39.1672 -89.9747 285° West 426 490 40,000  Level Kansas City Center
Tue 05:15:03 PM 39.1967 -90.1217 285° West 426 490 40,000  Level Kansas City Center
Tue 05:16:06 PM 39.2322 -90.2981 285° West 428 493 40,000  Level Kansas City Center
Tue 05:17:07 PM 39.2622 -90.4444 285° West 427 491 40,000  Level Kansas City Center
Tue 05:18:11 PM 39.2919 -90.5911 285° West 426 490 40,000  Level Kansas City Center
Tue 05:19:12 PM 39.3219 -90.7364 285° West 425 489 40,000  Level Kansas City Center
Tue 05:20:13 PM 39.3506 -90.8819 284° West 422 486 40,000  Level Kansas City Center
Tue 05:21:17 PM 39.3844 -91.0592 284° West 424 488 40,000  Level Kansas City Center
Tue 05:22:18 PM 39.4139 -91.2067 285° West 425 489 40,000  Level Kansas City Center
Tue 05:23:19 PM 39.4425 -91.3553 284° West 427 491 40,000  Level Kansas City Center
Tue 05:24:23 PM 39.4706 -91.5028 284° West 426 490 40,000  Level Kansas City Center
Tue 05:25:23 PM 39.4983 -91.6497 284° West 423 487 40,000  Level Kansas City Center
Tue 05:26:27 PM 39.5283 -91.8042 284° West 424 488 40,000  Level Kansas City Center
Tue 05:27:27 PM 39.5569 -91.9517 284° West 424 488 40,000  Level Kansas City Center
Tue 05:28:31 PM 39.5903 -92.1281 284° West 422 486 40,000 -48 Level Kansas City Center
Tue 05:29:32 PM 39.6156 -92.2767 282° West 423 487 39,900 -1,065 Descending Kansas City Center
Tue 05:30:35 PM 39.6172 -92.4275 271° West 421 484 37,800 -2,468 Descending Kansas City Center
Tue 05:31:36 PM 39.6194 -92.5808 271° West 424 488 34,800 -2,852 Descending Kansas City Center
Tue 05:32:37 PM 39.6217 -92.7336 271° West 425 489 32,000 -2,688 Descending Kansas City Center
Tue 05:33:41 PM 39.6239 -92.8908 271° West 430 495 29,200 -2,976 Descending Kansas City Center
Tue 05:34:42 PM 39.6256 -93.0750 271° West 430 495 25,800 -3,049 Descending Kansas City Center
Tue 05:35:43 PM 39.6275 -93.2247 271° West 420 483 23,000 -2,710 Descending Kansas City Center
Tue 05:36:46 PM 39.6283 -93.3717 270° West 413 475 20,200 -2,806 Descending Kansas City Center
Tue 05:37:47 PM 39.6303 -93.5114 271° West 402 463 17,200 -2,661 Descending Kansas City Center
Tue 05:38:50 PM 39.6303 -93.6419 270° West 374 430 14,700 -2,238 Descending Kansas City Center
Tue 05:39:53 PM 39.6317 -93.8058 271° West 380 437 12,500 -1,632 Descending Kansas City Center
Tue 05:40:55 PM 39.6086 -93.9197 255° West 341 392 11,300 -1,366 Descending Kansas City Center
Tue 05:41:56 PM 39.5600 -94.0158 237° Southwest 285 328 9,700 -1,728 Descending Kansas City Center
Tue 05:43:00 PM 39.5247 -94.0942 240° Southwest 266 306 7,700 -1,296 Descending Kansas City Center
Tue 05:44:01 PM 39.5106 -94.2061 261° West 281 323 7,000 -347 Descending Kansas City Center
Tue 05:45:01 PM 39.4986 -94.2978 260° West 270 311 7,000  Level Kansas City Center
Tue 05:46:04 PM 39.4867 -94.3894 260° West 271 312 7,000 -774 Level Kansas City Center
Tue 05:47:05 PM 39.4731 -94.4933 260° West 261 300 5,400 -1,440 Descending Kansas City Center
Tue 05:48:09 PM 39.4614 -94.5819 260° West 261 300 4,000 -1,152 Descending Kansas City Center
Tue 05:49:10 PM 39.4511 -94.6811 262° West 260 299 3,000 -732 Descending Kansas City Center
Tue 05:50:12 PM 39.3944 -94.6989 194° South 218 251 2,500 -672 Descending Kansas City Center
Tue 05:51:15 PM 39.3497 -94.7128 194° South 142 163 1,600 -726 Descending Kansas City Center
Tue 05:52:16 PM 39.3125 -94.7236 193° South 133 153 1,000 -590 Descending Kansas City Center
Tue 05:54:00 PM 39.2976 -94.7139 72° East  Level Estimated

Login

Don't have an account? Register now (free) for customized features, flight alerts, and more!